sensor_id;sensor_type;location;lat;lon;timestamp;pressure;altitude;pressure_sealevel;temperature;humidity
77062;BME280;65989;51.686;5.138;2022-12-18T00:01:22;102960.19;;;-4.32;85.53
77062;BME280;65989;51.686;5.138;2022-12-18T00:03:48;102961.25;;;-4.35;85.65
77062;BME280;65989;51.686;5.138;2022-12-18T00:06:16;102957.28;;;-4.40;85.92
77062;BME280;65989;51.686;5.138;2022-12-18T00:08:42;102956.53;;;-4.42;85.89
77062;BME280;65989;51.686;5.138;2022-12-18T00:11:10;102955.63;;;-4.41;85.88
77062;BME280;65989;51.686;5.138;2022-12-18T00:13:36;102964.41;;;-4.44;85.59
77062;BME280;65989;51.686;5.138;2022-12-18T00:16:08;102952.72;;;-4.50;85.74
77062;BME280;65989;51.686;5.138;2022-12-18T00:18:37;102938.00;;;-4.49;85.70
77062;BME280;65989;51.686;5.138;2022-12-18T00:21:05;102921.22;;;-4.56;85.70
77062;BME280;65989;51.686;5.138;2022-12-18T00:23:32;102917.09;;;-4.59;85.93
77062;BME280;65989;51.686;5.138;2022-12-18T00:26:03;102914.09;;;-4.66;85.69
77062;BME280;65989;51.686;5.138;2022-12-18T00:28:29;102926.38;;;-4.69;85.84
77062;BME280;65989;51.686;5.138;2022-12-18T00:31:06;102921.13;;;-4.68;85.74
77062;BME280;65989;51.686;5.138;2022-12-18T00:33:33;102923.19;;;-4.73;85.65
77062;BME280;65989;51.686;5.138;2022-12-18T00:36:03;102926.69;;;-4.74;85.91
77062;BME280;65989;51.686;5.138;2022-12-18T00:38:28;102919.84;;;-4.75;85.75
77062;BME280;65989;51.686;5.138;2022-12-18T00:40:53;102926.03;;;-4.77;85.90
77062;BME280;65989;51.686;5.138;2022-12-18T00:43:19;102921.78;;;-4.78;86.09
77062;BME280;65989;51.686;5.138;2022-12-18T00:45:45;102912.59;;;-4.83;86.12
77062;BME280;65989;51.686;5.138;2022-12-18T00:48:10;102907.72;;;-4.87;86.03
77062;BME280;65989;51.686;5.138;2022-12-18T00:50:36;102903.78;;;-4.93;85.67
77062;BME280;65989;51.686;5.138;2022-12-18T00:53:01;102906.84;;;-5.01;85.79
77062;BME280;65989;51.686;5.138;2022-12-18T00:55:26;102906.50;;;-5.09;85.95
77062;BME280;65989;51.686;5.138;2022-12-18T00:57:52;102919.75;;;-5.14;86.14
77062;BME280;65989;51.686;5.138;2022-12-18T01:00:18;102919.28;;;-5.20;86.22
77062;BME280;65989;51.686;5.138;2022-12-18T01:02:43;102919.66;;;-5.27;86.01
77062;BME280;65989;51.686;5.138;2022-12-18T01:05:14;102931.22;;;-5.32;86.23
77062;BME280;65989;51.686;5.138;2022-12-18T01:07:40;102943.78;;;-5.41;85.79
77062;BME280;65989;51.686;5.138;2022-12-18T01:10:06;102938.16;;;-5.47;85.84
77062;BME280;65989;51.686;5.138;2022-12-18T01:12:33;102933.28;;;-5.52;86.29
77062;BME280;65989;51.686;5.138;2022-12-18T01:14:58;102923.41;;;-5.60;85.95
77062;BME280;65989;51.686;5.138;2022-12-18T01:17:24;102927.13;;;-5.64;85.94
77062;BME280;65989;51.686;5.138;2022-12-18T01:19:49;102930.81;;;-5.68;86.30
77062;BME280;65989;51.686;5.138;2022-12-18T01:22:15;102941.53;;;-5.74;85.84
77062;BME280;65989;51.686;5.138;2022-12-18T01:24:40;102925.66;;;-5.82;86.38
77062;BME280;65989;51.686;5.138;2022-12-18T01:27:06;102937.75;;;-5.83;86.08
77062;BME280;65989;51.686;5.138;2022-12-18T01:29:31;102935.34;;;-5.86;86.01
77062;BME280;65989;51.686;5.138;2022-12-18T01:31:56;102933.03;;;-5.91;86.13
77062;BME280;65989;51.686;5.138;2022-12-18T01:34:23;102931.34;;;-5.92;86.45
77062;BME280;65989;51.686;5.138;2022-12-18T01:36:48;102939.94;;;-5.91;86.42
77062;BME280;65989;51.686;5.138;2022-12-18T01:39:15;102945.19;;;-5.93;86.30
77062;BME280;65989;51.686;5.138;2022-12-18T01:41:40;102940.25;;;-5.96;86.25
77062;BME280;65989;51.686;5.138;2022-12-18T01:47:20;102942.28;;;-6.01;86.42
77062;BME280;65989;51.686;5.138;2022-12-18T01:49:47;102933.06;;;-6.05;86.09
77062;BME280;65989;51.686;5.138;2022-12-18T01:52:13;102937.47;;;-6.07;86.43
77062;BME280;65989;51.686;5.138;2022-12-18T01:54:39;102942.91;;;-6.12;86.15
77062;BME280;65989;51.686;5.138;2022-12-18T01:57:04;102931.00;;;-6.15;86.20
77062;BME280;65989;51.686;5.138;2022-12-18T01:59:31;102929.72;;;-6.22;86.28
77062;BME280;65989;51.686;5.138;2022-12-18T02:01:58;102930.63;;;-6.23;86.62
77062;BME280;65989;51.686;5.138;2022-12-18T02:04:26;102925.56;;;-6.24;86.17
77062;BME280;65989;51.686;5.138;2022-12-18T02:07:05;102924.81;;;-6.26;86.35
77062;BME280;65989;51.686;5.138;2022-12-18T02:09:48;102929.34;;;-6.30;86.49
77062;BME280;65989;51.686;5.138;2022-12-18T02:12:23;102920.13;;;-6.34;86.43
77062;BME280;65989;51.686;5.138;2022-12-18T02:14:55;102918.34;;;-6.34;86.39
77062;BME280;65989;51.686;5.138;2022-12-18T02:17:31;102926.28;;;-6.37;86.29
77062;BME280;65989;51.686;5.138;2022-12-18T02:20:26;102920.47;;;-6.40;86.26
77062;BME280;65989;51.686;5.138;2022-12-18T02:23:04;102926.72;;;-6.45;86.62
77062;BME280;65989;51.686;5.138;2022-12-18T02:28:27;102920.94;;;-6.48;86.34
77062;BME280;65989;51.686;5.138;2022-12-18T02:30:56;102914.91;;;-6.49;86.46
77062;BME280;65989;51.686;5.138;2022-12-18T02:33:25;102917.50;;;-6.49;86.31
77062;BME280;65989;51.686;5.138;2022-12-18T02:35:53;102914.91;;;-6.49;86.51
77062;BME280;65989;51.686;5.138;2022-12-18T02:38:20;102917.44;;;-6.47;86.47
77062;BME280;65989;51.686;5.138;2022-12-18T02:40:46;102906.38;;;-6.49;86.18
77062;BME280;65989;51.686;5.138;2022-12-18T02:43:15;102909.19;;;-6.54;86.60
77062;BME280;65989;51.686;5.138;2022-12-18T02:45:49;102911.03;;;-6.56;86.42
77062;BME280;65989;51.686;5.138;2022-12-18T02:48:17;102906.03;;;-6.59;86.62
77062;BME280;65989;51.686;5.138;2022-12-18T02:50:55;102911.19;;;-6.59;86.59
77062;BME280;65989;51.686;5.138;2022-12-18T02:53:33;102919.31;;;-6.65;86.23
77062;BME280;65989;51.686;5.138;2022-12-18T02:56:18;102915.06;;;-6.66;86.69
77062;BME280;65989;51.686;5.138;2022-12-18T02:58:47;102899.78;;;-6.69;86.52
77062;BME280;65989;51.686;5.138;2022-12-18T03:04:05;102893.78;;;-6.70;86.14
77062;BME280;65989;51.686;5.138;2022-12-18T03:06:35;102889.63;;;-6.72;86.57
77062;BME280;65989;51.686;5.138;2022-12-18T03:09:07;102895.03;;;-6.77;86.34
77062;BME280;65989;51.686;5.138;2022-12-18T03:11:36;102892.66;;;-6.80;86.10
77062;BME280;65989;51.686;5.138;2022-12-18T03:14:23;102887.50;;;-6.80;86.34
77062;BME280;65989;51.686;5.138;2022-12-18T03:16:53;102883.25;;;-6.81;86.42
77062;BME280;65989;51.686;5.138;2022-12-18T03:19:22;102885.91;;;-6.83;86.38
77062;BME280;65989;51.686;5.138;2022-12-18T03:21:52;102880.09;;;-6.86;86.38
77062;BME280;65989;51.686;5.138;2022-12-18T03:24:19;102891.34;;;-6.87;86.36
77062;BME280;65989;51.686;5.138;2022-12-18T03:26:49;102891.34;;;-6.87;86.13
77062;BME280;65989;51.686;5.138;2022-12-18T03:29:31;102885.34;;;-6.88;86.17
77062;BME280;65989;51.686;5.138;2022-12-18T03:32:06;102882.94;;;-6.91;86.34
77062;BME280;65989;51.686;5.138;2022-12-18T03:34:35;102883.94;;;-6.94;86.21
77062;BME280;65989;51.686;5.138;2022-12-18T03:37:02;102882.28;;;-6.95;86.07
77062;BME280;65989;51.686;5.138;2022-12-18T03:39:28;102877.22;;;-6.96;86.42
77062;BME280;65989;51.686;5.138;2022-12-18T03:44:57;102864.50;;;-6.99;86.56
77062;BME280;65989;51.686;5.138;2022-12-18T03:50:20;102855.53;;;-7.08;86.26
77062;BME280;65989;51.686;5.138;2022-12-18T03:55:16;102854.78;;;-7.10;86.27
77062;BME280;65989;51.686;5.138;2022-12-18T03:57:44;102848.91;;;-7.12;86.30
77062;BME280;65989;51.686;5.138;2022-12-18T04:00:13;102837.88;;;-7.14;86.10
77062;BME280;65989;51.686;5.138;2022-12-18T04:02:43;102837.00;;;-7.15;86.15
77062;BME280;65989;51.686;5.138;2022-12-18T04:05:11;102843.00;;;-7.14;86.07
77062;BME280;65989;51.686;5.138;2022-12-18T04:07:38;102836.09;;;-7.14;86.02
77062;BME280;65989;51.686;5.138;2022-12-18T04:10:06;102829.13;;;-7.12;85.95
77062;BME280;65989;51.686;5.138;2022-12-18T04:12:32;102817.78;;;-7.09;86.21
77062;BME280;65989;51.686;5.138;2022-12-18T04:14:58;102816.34;;;-7.13;86.16
77062;BME280;65989;51.686;5.138;2022-12-18T04:17:23;102827.56;;;-7.14;86.20
77062;BME280;65989;51.686;5.138;2022-12-18T04:19:49;102835.34;;;-7.16;86.30
77062;BME280;65989;51.686;5.138;2022-12-18T04:22:15;102837.19;;;-7.18;86.25
77062;BME280;65989;51.686;5.138;2022-12-18T04:24:40;102846.75;;;-7.20;86.24
77062;BME280;65989;51.686;5.138;2022-12-18T04:27:07;102840.59;;;-7.17;85.97
77062;BME280;65989;51.686;5.138;2022-12-18T04:29:32;102854.41;;;-7.18;86.05
77062;BME280;65989;51.686;5.138;2022-12-18T04:31:58;102847.59;;;-7.20;86.10
77062;BME280;65989;51.686;5.138;2022-12-18T04:34:23;102855.50;;;-7.23;86.26
77062;BME280;65989;51.686;5.138;2022-12-18T04:36:49;102855.56;;;-7.24;86.18
77062;BME280;65989;51.686;5.138;2022-12-18T04:39:14;102862.53;;;-7.26;85.89
77062;BME280;65989;51.686;5.138;2022-12-18T04:41:40;102867.88;;;-7.29;86.10
77062;BME280;65989;51.686;5.138;2022-12-18T04:44:06;102869.72;;;-7.31;85.98
77062;BME280;65989;51.686;5.138;2022-12-18T04:46:31;102873.38;;;-7.36;86.07
77062;BME280;65989;51.686;5.138;2022-12-18T04:48:57;102867.63;;;-7.41;86.04
77062;BME280;65989;51.686;5.138;2022-12-18T04:51:22;102876.28;;;-7.42;86.15
77062;BME280;65989;51.686;5.138;2022-12-18T04:53:47;102878.19;;;-7.45;86.10
77062;BME280;65989;51.686;5.138;2022-12-18T04:56:14;102874.78;;;-7.46;85.93
77062;BME280;65989;51.686;5.138;2022-12-18T04:58:41;102870.53;;;-7.47;85.76
77062;BME280;65989;51.686;5.138;2022-12-18T05:01:07;102867.97;;;-7.47;86.25
77062;BME280;65989;51.686;5.138;2022-12-18T05:03:33;102874.03;;;-7.48;85.99
77062;BME280;65989;51.686;5.138;2022-12-18T05:06:00;102872.28;;;-7.47;86.03
77062;BME280;65989;51.686;5.138;2022-12-18T05:08:25;102868.88;;;-7.48;85.83
77062;BME280;65989;51.686;5.138;2022-12-18T05:13:29;102873.97;;;-7.46;86.01
77062;BME280;65989;51.686;5.138;2022-12-18T05:15:55;102868.81;;;-7.46;86.00
77062;BME280;65989;51.686;5.138;2022-12-18T05:18:21;102869.78;;;-7.49;86.04
77062;BME280;65989;51.686;5.138;2022-12-18T05:20:47;102868.97;;;-7.50;85.91
77062;BME280;65989;51.686;5.138;2022-12-18T05:23:12;102868.97;;;-7.50;86.01
77062;BME280;65989;51.686;5.138;2022-12-18T05:25:38;102870.63;;;-7.48;85.78
77062;BME280;65989;51.686;5.138;2022-12-18T05:28:03;102876.69;;;-7.50;85.66
77062;BME280;65989;51.686;5.138;2022-12-18T05:30:29;102871.63;;;-7.51;86.11
77062;BME280;65989;51.686;5.138;2022-12-18T05:32:54;102876.84;;;-7.53;85.83
77062;BME280;65989;51.686;5.138;2022-12-18T05:35:19;102879.50;;;-7.54;85.83
77062;BME280;65989;51.686;5.138;2022-12-18T05:37:45;102876.00;;;-7.53;85.74
77062;BME280;65989;51.686;5.138;2022-12-18T05:40:11;102871.72;;;-7.53;86.04
77062;BME280;65989;51.686;5.138;2022-12-18T05:42:37;102867.53;;;-7.55;85.92
77062;BME280;65989;51.686;5.138;2022-12-18T05:45:03;102864.97;;;-7.55;85.85
77062;BME280;65989;51.686;5.138;2022-12-18T05:47:28;102858.91;;;-7.54;85.67
77062;BME280;65989;51.686;5.138;2022-12-18T05:49:54;102852.09;;;-7.55;86.12
77062;BME280;65989;51.686;5.138;2022-12-18T05:52:20;102849.50;;;-7.55;85.73
77062;BME280;65989;51.686;5.138;2022-12-18T05:54:45;102844.47;;;-7.57;85.71
77062;BME280;65989;51.686;5.138;2022-12-18T05:57:11;102849.78;;;-7.60;85.98
77062;BME280;65989;51.686;5.138;2022-12-18T05:59:36;102834.50;;;-7.63;86.01
77062;BME280;65989;51.686;5.138;2022-12-18T06:02:02;102844.88;;;-7.65;85.85
77062;BME280;65989;51.686;5.138;2022-12-18T06:04:31;102845.13;;;-7.69;85.85
77062;BME280;65989;51.686;5.138;2022-12-18T06:06:56;102846.94;;;-7.71;85.98
77062;BME280;65989;51.686;5.138;2022-12-18T06:09:22;102844.53;;;-7.74;85.80
77062;BME280;65989;51.686;5.138;2022-12-18T06:11:47;102852.34;;;-7.76;85.83
77062;BME280;65989;51.686;5.138;2022-12-18T06:14:13;102853.41;;;-7.80;85.95
77062;BME280;65989;51.686;5.138;2022-12-18T06:16:38;102844.03;;;-7.81;85.97
77062;BME280;65989;51.686;5.138;2022-12-18T06:19:04;102851.75;;;-7.81;85.99
77062;BME280;65989;51.686;5.138;2022-12-18T06:21:31;102846.59;;;-7.81;86.00
77062;BME280;65989;51.686;5.138;2022-12-18T06:23:57;102847.53;;;-7.82;85.53
77062;BME280;65989;51.686;5.138;2022-12-18T06:26:23;102840.66;;;-7.82;85.67
77062;BME280;65989;51.686;5.138;2022-12-18T06:28:48;102849.03;;;-7.78;85.80
77062;BME280;65989;51.686;5.138;2022-12-18T06:31:14;102842.38;;;-7.82;85.75
77062;BME280;65989;51.686;5.138;2022-12-18T06:33:39;102841.63;;;-7.84;85.76
77062;BME280;65989;51.686;5.138;2022-12-18T06:36:11;102824.53;;;-7.85;85.56
77062;BME280;65989;51.686;5.138;2022-12-18T06:38:38;102833.91;;;-7.84;85.95
77062;BME280;65989;51.686;5.138;2022-12-18T06:41:08;102828.69;;;-7.83;86.05
77062;BME280;65989;51.686;5.138;2022-12-18T06:43:37;102822.84;;;-7.86;85.76
77062;BME280;65989;51.686;5.138;2022-12-18T06:46:03;102809.16;;;-7.87;85.62
77062;BME280;65989;51.686;5.138;2022-12-18T06:48:29;102814.22;;;-7.85;85.84
77062;BME280;65989;51.686;5.138;2022-12-18T06:50:55;102808.66;;;-7.93;85.85
77062;BME280;65989;51.686;5.138;2022-12-18T06:53:21;102819.03;;;-7.95;85.77
77062;BME280;65989;51.686;5.138;2022-12-18T06:55:47;102811.97;;;-7.91;85.67
77062;BME280;65989;51.686;5.138;2022-12-18T06:58:12;102810.56;;;-7.97;85.58
77062;BME280;65989;51.686;5.138;2022-12-18T07:00:38;102795.28;;;-8.00;85.73
77062;BME280;65989;51.686;5.138;2022-12-18T07:03:03;102796.94;;;-7.99;85.97
77062;BME280;65989;51.686;5.138;2022-12-18T07:05:29;102802.19;;;-8.01;85.70
77062;BME280;65989;51.686;5.138;2022-12-18T07:07:54;102791.16;;;-8.03;85.74
77062;BME280;65989;51.686;5.138;2022-12-18T07:10:19;102791.81;;;-7.99;85.53
77062;BME280;65989;51.686;5.138;2022-12-18T07:12:45;102791.16;;;-8.03;85.91
77062;BME280;65989;51.686;5.138;2022-12-18T07:15:10;102796.47;;;-8.06;85.72
77062;BME280;65989;51.686;5.138;2022-12-18T07:17:36;102783.00;;;-8.11;85.57
77062;BME280;65989;51.686;5.138;2022-12-18T07:20:01;102783.00;;;-8.11;85.73
77062;BME280;65989;51.686;5.138;2022-12-18T07:22:27;102776.19;;;-8.12;85.74
77062;BME280;65989;51.686;5.138;2022-12-18T07:24:52;102767.72;;;-8.14;85.61
77062;BME280;65989;51.686;5.138;2022-12-18T07:27:18;102773.78;;;-8.15;85.68
77062;BME280;65989;51.686;5.138;2022-12-18T07:29:43;102774.38;;;-8.10;85.65
77062;BME280;65989;51.686;5.138;2022-12-18T07:32:08;102769.97;;;-8.08;85.76
77062;BME280;65989;51.686;5.138;2022-12-18T07:34:37;102759.59;;;-8.06;85.89
77062;BME280;65989;51.686;5.138;2022-12-18T07:37:02;102741.59;;;-8.06;85.83
77062;BME280;65989;51.686;5.138;2022-12-18T07:39:28;102736.38;;;-8.05;85.98
77062;BME280;65989;51.686;5.138;2022-12-18T07:41:53;102735.28;;;-8.01;85.70
77062;BME280;65989;51.686;5.138;2022-12-18T07:44:37;102723.94;;;-7.97;85.81
77062;BME280;65989;51.686;5.138;2022-12-18T07:47:04;102722.09;;;-7.95;85.95
77062;BME280;65989;51.686;5.138;2022-12-18T07:49:29;102711.53;;;-7.90;85.70
77062;BME280;65989;51.686;5.138;2022-12-18T07:51:55;102706.31;;;-7.88;85.96
77062;BME280;65989;51.686;5.138;2022-12-18T07:54:22;102706.88;;;-7.83;86.05
77062;BME280;65989;51.686;5.138;2022-12-18T07:56:48;102713.63;;;-7.81;85.85
77062;BME280;65989;51.686;5.138;2022-12-18T07:59:13;102724.66;;;-7.78;86.11
77062;BME280;65989;51.686;5.138;2022-12-18T08:01:38;102730.47;;;-7.75;85.87
77062;BME280;65989;51.686;5.138;2022-12-18T08:04:04;102748.22;;;-7.70;85.98
77062;BME280;65989;51.686;5.138;2022-12-18T08:06:30;102750.56;;;-7.66;86.13
77062;BME280;65989;51.686;5.138;2022-12-18T08:08:56;102733.16;;;-7.62;86.00
77062;BME280;65989;51.686;5.138;2022-12-18T08:11:23;102726.09;;;-7.58;86.08
77062;BME280;65989;51.686;5.138;2022-12-18T08:13:48;102727.59;;;-7.54;85.95
77062;BME280;65989;51.686;5.138;2022-12-18T08:16:14;102735.88;;;-7.49;85.84
77062;BME280;65989;51.686;5.138;2022-12-18T08:18:39;102740.69;;;-7.43;85.97
77062;BME280;65989;51.686;5.138;2022-12-18T08:21:13;102730.88;;;-7.36;86.05
77062;BME280;65989;51.686;5.138;2022-12-18T08:23:40;102730.78;;;-7.35;85.87
77062;BME280;65989;51.686;5.138;2022-12-18T08:26:05;102731.44;;;-7.31;85.82
77062;BME280;65989;51.686;5.138;2022-12-18T08:28:31;102727.66;;;-7.25;85.94
77062;BME280;65989;51.686;5.138;2022-12-18T08:30:56;102730.00;;;-7.21;85.79
77062;BME280;65989;51.686;5.138;2022-12-18T08:33:22;102722.16;;;-7.19;85.87
77062;BME280;65989;51.686;5.138;2022-12-18T08:35:47;102715.00;;;-7.14;86.10
77062;BME280;65989;51.686;5.138;2022-12-18T08:38:13;102716.56;;;-7.11;85.95
77062;BME280;65989;51.686;5.138;2022-12-18T08:40:38;102704.41;;;-7.09;85.72
77062;BME280;65989;51.686;5.138;2022-12-18T08:43:04;102696.31;;;-7.03;85.79
77062;BME280;65989;51.686;5.138;2022-12-18T08:45:56;102704.34;;;-6.93;85.66
77062;BME280;65989;51.686;5.138;2022-12-18T08:48:21;102713.66;;;-6.91;85.76
77062;BME280;65989;51.686;5.138;2022-12-18T08:50:54;102707.22;;;-6.83;85.74
77062;BME280;65989;51.686;5.138;2022-12-18T08:53:20;102711.00;;;-6.75;85.57
77062;BME280;65989;51.686;5.138;2022-12-18T08:55:45;102711.44;;;-6.68;85.78
77062;BME280;65989;51.686;5.138;2022-12-18T08:58:10;102704.91;;;-6.59;85.73
77062;BME280;65989;51.686;5.138;2022-12-18T09:00:36;102713.91;;;-6.52;85.49
77062;BME280;65989;51.686;5.138;2022-12-18T09:03:01;102730.69;;;-6.45;85.64
77062;BME280;65989;51.686;5.138;2022-12-18T09:05:27;102730.31;;;-6.38;85.68
77062;BME280;65989;51.686;5.138;2022-12-18T09:07:52;102738.44;;;-6.30;85.42
77062;BME280;65989;51.686;5.138;2022-12-18T09:10:17;102741.25;;;-6.20;85.77
77062;BME280;65989;51.686;5.138;2022-12-18T09:12:43;102745.19;;;-6.15;85.45
77062;BME280;65989;51.686;5.138;2022-12-18T09:15:09;102752.56;;;-6.08;85.41
77062;BME280;65989;51.686;5.138;2022-12-18T09:17:34;102755.59;;;-6.02;85.36
77062;BME280;65989;51.686;5.138;2022-12-18T09:19:59;102742.47;;;-5.98;85.38
77062;BME280;65989;51.686;5.138;2022-12-18T09:22:25;102741.25;;;-5.93;85.42
77062;BME280;65989;51.686;5.138;2022-12-18T09:24:50;102734.88;;;-5.87;85.36
77062;BME280;65989;51.686;5.138;2022-12-18T09:27:15;102716.50;;;-5.82;85.41
77062;BME280;65989;51.686;5.138;2022-12-18T09:29:41;102705.06;;;-5.78;85.17
77062;BME280;65989;51.686;5.138;2022-12-18T09:32:06;102685.88;;;-5.74;85.42
77062;BME280;65989;51.686;5.138;2022-12-18T09:34:32;102678.84;;;-5.72;84.96
77062;BME280;65989;51.686;5.138;2022-12-18T09:36:57;102690.44;;;-5.65;84.98
77062;BME280;65989;51.686;5.138;2022-12-18T09:39:23;102685.78;;;-5.60;84.96
77062;BME280;65989;51.686;5.138;2022-12-18T09:41:57;102689.53;;;-5.51;85.19
77062;BME280;65989;51.686;5.138;2022-12-18T09:49:23;102671.56;;;-5.27;84.87
77062;BME280;65989;51.686;5.138;2022-12-18T09:55:09;102690.50;;;-5.13;84.69
77062;BME280;65989;51.686;5.138;2022-12-18T09:57:40;102689.16;;;-5.06;84.56
77062;BME280;65989;51.686;5.138;2022-12-18T10:00:19;102688.53;;;-4.97;84.69
77062;BME280;65989;51.686;5.138;2022-12-18T10:02:46;102683.56;;;-4.87;84.58
77062;BME280;65989;51.686;5.138;2022-12-18T10:05:14;102686.22;;;-4.75;84.46
77062;BME280;65989;51.686;5.138;2022-12-18T10:07:52;102701.97;;;-4.66;84.56
77062;BME280;65989;51.686;5.138;2022-12-18T10:11:11;102696.13;;;-4.56;84.40
77062;BME280;65989;51.686;5.138;2022-12-18T10:15:56;102689.38;;;-4.46;84.14
77062;BME280;65989;51.686;5.138;2022-12-18T10:19:07;102681.06;;;-4.38;84.11
77062;BME280;65989;51.686;5.138;2022-12-18T10:22:21;102671.84;;;-4.29;83.77
77062;BME280;65989;51.686;5.138;2022-12-18T10:25:24;102663.03;;;-4.27;83.47
77062;BME280;65989;51.686;5.138;2022-12-18T10:27:43;102662.69;;;-4.22;83.52
77062;BME280;65989;51.686;5.138;2022-12-18T10:30:15;102654.50;;;-4.16;83.83
77062;BME280;65989;51.686;5.138;2022-12-18T10:32:41;102644.66;;;-4.11;83.60
77062;BME280;65989;51.686;5.138;2022-12-18T10:35:33;102639.47;;;-4.11;83.33
77062;BME280;65989;51.686;5.138;2022-12-18T10:41:02;102620.56;;;-4.00;83.39
77062;BME280;65989;51.686;5.138;2022-12-18T10:43:38;102619.28;;;-3.94;83.27
77062;BME280;65989;51.686;5.138;2022-12-18T10:50:59;102612.97;;;-3.79;82.77
77062;BME280;65989;51.686;5.138;2022-12-18T10:53:27;102606.50;;;-3.73;82.56
77062;BME280;65989;51.686;5.138;2022-12-18T10:55:56;102595.81;;;-3.68;82.30
77062;BME280;65989;51.686;5.138;2022-12-18T11:03:32;102606.09;;;-3.55;82.50
77062;BME280;65989;51.686;5.138;2022-12-18T11:06:03;102605.50;;;-3.48;82.06
77062;BME280;65989;51.686;5.138;2022-12-18T11:08:29;102607.84;;;-3.45;82.17
77062;BME280;65989;51.686;5.138;2022-12-18T11:10:54;102607.41;;;-3.38;82.06
77062;BME280;65989;51.686;5.138;2022-12-18T11:13:25;102600.81;;;-3.31;82.31
77062;BME280;65989;51.686;5.138;2022-12-18T11:15:52;102592.06;;;-3.30;81.87
77062;BME280;65989;51.686;5.138;2022-12-18T11:18:29;102594.91;;;-3.22;81.82
77062;BME280;65989;51.686;5.138;2022-12-18T11:20:58;102585.94;;;-3.18;81.65
77062;BME280;65989;51.686;5.138;2022-12-18T11:23:25;102584.78;;;-3.13;81.78
77062;BME280;65989;51.686;5.138;2022-12-18T11:25:53;102581.94;;;-3.10;81.75
77062;BME280;65989;51.686;5.138;2022-12-18T11:28:29;102573.78;;;-3.06;81.74
77062;BME280;65989;51.686;5.138;2022-12-18T11:31:21;102582.88;;;-3.00;81.56
77062;BME280;65989;51.686;5.138;2022-12-18T11:33:52;102587.72;;;-2.95;81.55
77062;BME280;65989;51.686;5.138;2022-12-18T11:36:20;102581.44;;;-2.93;81.24
77062;BME280;65989;51.686;5.138;2022-12-18T11:38:48;102583.94;;;-2.91;81.26
77062;BME280;65989;51.686;5.138;2022-12-18T11:41:45;102587.69;;;-2.84;80.99
77062;BME280;65989;51.686;5.138;2022-12-18T11:44:59;102576.00;;;-2.78;80.86
77062;BME280;65989;51.686;5.138;2022-12-18T11:50:18;102566.09;;;-2.73;80.45
77062;BME280;65989;51.686;5.138;2022-12-18T11:52:44;102567.50;;;-2.69;80.75
77062;BME280;65989;51.686;5.138;2022-12-18T11:55:11;102566.03;;;-2.62;80.47
77062;BME280;65989;51.686;5.138;2022-12-18T11:58:00;102560.38;;;-2.56;80.63
77062;BME280;65989;51.686;5.138;2022-12-18T12:00:29;102552.09;;;-2.49;80.16
77062;BME280;65989;51.686;5.138;2022-12-18T12:03:22;102534.50;;;-2.46;80.44
77062;BME280;65989;51.686;5.138;2022-12-18T12:08:42;102519.38;;;-2.41;80.28
77062;BME280;65989;51.686;5.138;2022-12-18T12:11:33;102517.59;;;-2.40;80.21
77062;BME280;65989;51.686;5.138;2022-12-18T12:19:25;102514.41;;;-2.44;80.04
77062;BME280;65989;51.686;5.138;2022-12-18T12:27:30;102498.72;;;-2.42;79.68
77062;BME280;65989;51.686;5.138;2022-12-18T12:30:05;102491.66;;;-2.40;79.36
77062;BME280;65989;51.686;5.138;2022-12-18T12:33:00;102487.50;;;-2.43;79.29
77062;BME280;65989;51.686;5.138;2022-12-18T12:38:22;102480.88;;;-2.35;79.44
77062;BME280;65989;51.686;5.138;2022-12-18T12:41:04;102477.31;;;-2.34;79.33
77062;BME280;65989;51.686;5.138;2022-12-18T12:43:32;102478.16;;;-2.34;79.46
77062;BME280;65989;51.686;5.138;2022-12-18T12:46:06;102465.19;;;-2.34;79.40
77062;BME280;65989;51.686;5.138;2022-12-18T12:48:43;102463.00;;;-2.29;78.92
77062;BME280;65989;51.686;5.138;2022-12-18T12:51:21;102461.34;;;-2.30;79.30
77062;BME280;65989;51.686;5.138;2022-12-18T12:53:49;102459.72;;;-2.31;78.78
77062;BME280;65989;51.686;5.138;2022-12-18T12:56:17;102464.66;;;-2.28;78.81
77062;BME280;65989;51.686;5.138;2022-12-18T13:06:40;102457.56;;;-2.26;79.00
77062;BME280;65989;51.686;5.138;2022-12-18T13:09:08;102452.38;;;-2.26;78.38
77062;BME280;65989;51.686;5.138;2022-12-18T13:19:49;102452.00;;;-2.21;78.78
77062;BME280;65989;51.686;5.138;2022-12-18T13:22:35;102443.00;;;-2.17;78.76
77062;BME280;65989;51.686;5.138;2022-12-18T13:25:02;102446.56;;;-2.18;78.45
77062;BME280;65989;51.686;5.138;2022-12-18T13:38:34;102427.53;;;-2.18;78.34
77062;BME280;65989;51.686;5.138;2022-12-18T13:41:03;102422.59;;;-2.21;78.37
77062;BME280;65989;51.686;5.138;2022-12-18T13:43:53;102425.19;;;-2.21;78.15
77062;BME280;65989;51.686;5.138;2022-12-18T13:46:57;102430.38;;;-2.21;78.31
77062;BME280;65989;51.686;5.138;2022-12-18T13:51:59;102417.41;;;-2.21;78.05
77062;BME280;65989;51.686;5.138;2022-12-18T13:54:37;102416.34;;;-2.19;78.11
77062;BME280;65989;51.686;5.138;2022-12-18T13:57:05;102405.25;;;-2.21;78.20
77062;BME280;65989;51.686;5.138;2022-12-18T13:59:50;102410.31;;;-2.19;78.31
77062;BME280;65989;51.686;5.138;2022-12-18T14:02:19;102406.91;;;-2.20;78.16
77062;BME280;65989;51.686;5.138;2022-12-18T14:04:46;102408.66;;;-2.20;77.87
77062;BME280;65989;51.686;5.138;2022-12-18T14:07:14;102405.13;;;-2.19;77.96
77062;BME280;65989;51.686;5.138;2022-12-18T14:09:46;102405.00;;;-2.18;78.19
77062;BME280;65989;51.686;5.138;2022-12-18T14:12:20;102404.16;;;-2.18;77.84
77062;BME280;65989;51.686;5.138;2022-12-18T14:15:14;102406.66;;;-2.17;78.19
77062;BME280;65989;51.686;5.138;2022-12-18T14:17:46;102402.25;;;-2.16;78.07
77062;BME280;65989;51.686;5.138;2022-12-18T14:20:15;102398.84;;;-2.17;78.07
77062;BME280;65989;51.686;5.138;2022-12-18T14:22:43;102404.88;;;-2.16;77.94
77062;BME280;65989;51.686;5.138;2022-12-18T14:27:50;102410.91;;;-2.16;78.14
77062;BME280;65989;51.686;5.138;2022-12-18T14:30:29;102402.13;;;-2.15;77.81
77062;BME280;65989;51.686;5.138;2022-12-18T14:33:15;102397.63;;;-2.13;77.65
77062;BME280;65989;51.686;5.138;2022-12-18T14:35:51;102391.88;;;-2.16;77.93
77062;BME280;65989;51.686;5.138;2022-12-18T14:38:29;102396.13;;;-2.15;78.08